sensor_id;sensor_type;location;lat;lon;timestamp;pressure;altitude;pressure_sealevel;temperature;humidity
37170;BME280;23062;13.952;100.608;2022-12-28T00:02:24;1015.58;;;25.45;58.80
37170;BME280;23062;13.952;100.608;2022-12-28T00:06:50;1015.65;;;25.44;58.73
37170;BME280;23062;13.952;100.608;2022-12-28T00:11:18;1015.79;;;25.43;58.63
37170;BME280;23062;13.952;100.608;2022-12-28T00:15:44;1015.78;;;25.44;58.81
37170;BME280;23062;13.952;100.608;2022-12-28T00:20:10;1015.84;;;25.45;58.94
37170;BME280;23062;13.952;100.608;2022-12-28T00:24:36;1015.87;;;25.52;58.73
37170;BME280;23062;13.952;100.608;2022-12-28T00:29:05;1015.92;;;25.57;58.54
37170;BME280;23062;13.952;100.608;2022-12-28T00:33:32;1016.00;;;25.60;58.25
37170;BME280;23062;13.952;100.608;2022-12-28T00:37:58;1016.05;;;25.62;58.28
37170;BME280;23062;13.952;100.608;2022-12-28T00:42:24;1016.19;;;25.75;57.68
37170;BME280;23062;13.952;100.608;2022-12-28T00:46:50;1016.24;;;25.70;58.32
37170;BME280;23062;13.952;100.608;2022-12-28T00:51:17;1016.32;;;25.85;58.06
37170;BME280;23062;13.952;100.608;2022-12-28T00:55:43;1016.33;;;26.11;56.86
37170;BME280;23062;13.952;100.608;2022-12-28T01:00:11;1016.42;;;26.60;55.33
37170;BME280;23062;13.952;100.608;2022-12-28T01:04:37;1016.54;;;26.83;54.61
37170;BME280;23062;13.952;100.608;2022-12-28T01:09:04;1016.62;;;26.91;54.23
37170;BME280;23062;13.952;100.608;2022-12-28T01:13:29;1016.65;;;26.92;54.07
37170;BME280;23062;13.952;100.608;2022-12-28T01:17:55;1016.72;;;26.93;53.84
37170;BME280;23062;13.952;100.608;2022-12-28T01:22:23;1016.75;;;26.93;53.37
37170;BME280;23062;13.952;100.608;2022-12-28T01:26:54;1016.85;;;26.96;54.91
37170;BME280;23062;13.952;100.608;2022-12-28T01:31:21;1016.89;;;27.00;54.13
37170;BME280;23062;13.952;100.608;2022-12-28T01:35:47;1016.95;;;27.04;53.42
37170;BME280;23062;13.952;100.608;2022-12-28T01:40:14;1017.04;;;27.15;54.31
37170;BME280;23062;13.952;100.608;2022-12-28T01:44:43;1017.13;;;27.24;53.50
37170;BME280;23062;13.952;100.608;2022-12-28T01:49:12;1017.19;;;27.34;53.69
37170;BME280;23062;13.952;100.608;2022-12-28T01:53:44;1017.20;;;27.41;53.79
37170;BME280;23062;13.952;100.608;2022-12-28T01:58:15;1017.30;;;27.50;53.27
37170;BME280;23062;13.952;100.608;2022-12-28T02:02:45;1017.32;;;27.58;52.84
37170;BME280;23062;13.952;100.608;2022-12-28T02:07:14;1017.40;;;27.68;52.69
37170;BME280;23062;13.952;100.608;2022-12-28T02:11:44;1017.38;;;27.75;51.72
37170;BME280;23062;13.952;100.608;2022-12-28T02:16:16;1017.40;;;27.80;51.51
37170;BME280;23062;13.952;100.608;2022-12-28T02:30:39;1017.40;;;27.97;50.11
37170;BME280;23062;13.952;100.608;2022-12-28T02:35:07;1017.40;;;28.01;50.48
37170;BME280;23062;13.952;100.608;2022-12-28T02:39:37;1017.44;;;28.05;50.01
37170;BME280;23062;13.952;100.608;2022-12-28T02:44:03;1017.44;;;28.10;49.73
37170;BME280;23062;13.952;100.608;2022-12-28T02:48:43;1017.42;;;28.13;50.23
37170;BME280;23062;13.952;100.608;2022-12-28T02:53:34;1017.37;;;28.14;50.76
37170;BME280;23062;13.952;100.608;2022-12-28T03:07:24;1017.28;;;28.10;49.90
37170;BME280;23062;13.952;100.608;2022-12-28T03:16:50;1017.21;;;28.48;49.02
37170;BME280;23062;13.952;100.608;2022-12-28T03:21:39;1017.24;;;28.50;48.82
37170;BME280;23062;13.952;100.608;2022-12-28T03:26:23;1017.20;;;28.50;48.95
37170;BME280;23062;13.952;100.608;2022-12-28T03:31:13;1017.16;;;28.54;48.44
37170;BME280;23062;13.952;100.608;2022-12-28T03:40:20;1017.07;;;28.59;48.27
37170;BME280;23062;13.952;100.608;2022-12-28T03:44:47;1017.06;;;28.61;48.20
37170;BME280;23062;13.952;100.608;2022-12-28T03:49:12;1016.96;;;28.63;47.74
37170;BME280;23062;13.952;100.608;2022-12-28T03:53:43;1016.95;;;28.67;47.06
37170;BME280;23062;13.952;100.608;2022-12-28T03:58:09;1016.84;;;28.66;47.31
37170;BME280;23062;13.952;100.608;2022-12-28T04:02:36;1016.82;;;28.67;47.16
37170;BME280;23062;13.952;100.608;2022-12-28T04:07:06;1016.64;;;28.71;46.56
37170;BME280;23062;13.952;100.608;2022-12-28T04:11:32;1016.63;;;28.70;46.55
37170;BME280;23062;13.952;100.608;2022-12-28T04:16:04;1016.49;;;28.76;46.04
37170;BME280;23062;13.952;100.608;2022-12-28T04:20:32;1016.40;;;28.75;45.90
37170;BME280;23062;13.952;100.608;2022-12-28T04:24:58;1016.35;;;28.76;45.56
37170;BME280;23062;13.952;100.608;2022-12-28T04:29:25;1016.31;;;28.81;45.11
37170;BME280;23062;13.952;100.608;2022-12-28T04:33:55;1016.26;;;28.82;45.02
37170;BME280;23062;13.952;100.608;2022-12-28T04:38:21;1016.07;;;28.82;44.62
37170;BME280;23062;13.952;100.608;2022-12-28T04:42:47;1016.03;;;28.85;44.96
37170;BME280;23062;13.952;100.608;2022-12-28T04:47:13;1015.92;;;28.86;44.85
37170;BME280;23062;13.952;100.608;2022-12-28T04:51:41;1015.89;;;28.85;44.96
37170;BME280;23062;13.952;100.608;2022-12-28T04:56:15;1015.79;;;28.88;44.73
37170;BME280;23062;13.952;100.608;2022-12-28T05:00:42;1015.70;;;28.91;44.37
37170;BME280;23062;13.952;100.608;2022-12-28T05:05:11;1015.64;;;28.93;44.15
37170;BME280;23062;13.952;100.608;2022-12-28T05:09:37;1015.47;;;28.94;43.96
37170;BME280;23062;13.952;100.608;2022-12-28T05:14:07;1015.37;;;28.96;44.09
37170;BME280;23062;13.952;100.608;2022-12-28T05:18:34;1015.26;;;28.98;43.46
37170;BME280;23062;13.952;100.608;2022-12-28T05:23:01;1015.23;;;28.99;43.50
37170;BME280;23062;13.952;100.608;2022-12-28T05:27:33;1015.16;;;29.00;43.43
37170;BME280;23062;13.952;100.608;2022-12-28T05:32:00;1015.12;;;29.05;42.64
37170;BME280;23062;13.952;100.608;2022-12-28T05:36:27;1015.00;;;29.09;42.07
37170;BME280;23062;13.952;100.608;2022-12-28T05:40:53;1014.95;;;29.09;41.73
37170;BME280;23062;13.952;100.608;2022-12-28T05:45:20;1014.79;;;29.10;41.56
37170;BME280;23062;13.952;100.608;2022-12-28T05:49:47;1014.77;;;29.14;41.52
37170;BME280;23062;13.952;100.608;2022-12-28T05:54:18;1014.71;;;29.13;41.75
37170;BME280;23062;13.952;100.608;2022-12-28T05:58:51;1014.57;;;29.14;41.35
37170;BME280;23062;13.952;100.608;2022-12-28T06:03:16;1014.43;;;29.15;41.42
37170;BME280;23062;13.952;100.608;2022-12-28T06:07:42;1014.36;;;29.19;40.93
37170;BME280;23062;13.952;100.608;2022-12-28T06:12:11;1014.29;;;29.20;40.78
37170;BME280;23062;13.952;100.608;2022-12-28T06:16:42;1014.16;;;29.22;40.65
37170;BME280;23062;13.952;100.608;2022-12-28T06:21:15;1014.12;;;29.21;40.81
37170;BME280;23062;13.952;100.608;2022-12-28T06:25:38;1014.04;;;29.22;40.66
37170;BME280;23062;13.952;100.608;2022-12-28T06:30:06;1013.98;;;29.25;40.35
37170;BME280;23062;13.952;100.608;2022-12-28T06:34:32;1013.81;;;29.32;39.54
37170;BME280;23062;13.952;100.608;2022-12-28T06:38:59;1013.69;;;29.38;39.13
37170;BME280;23062;13.952;100.608;2022-12-28T06:43:29;1013.63;;;29.55;38.70
37170;BME280;23062;13.952;100.608;2022-12-28T06:47:54;1013.56;;;29.60;38.94
37170;BME280;23062;13.952;100.608;2022-12-28T06:52:20;1013.48;;;29.64;38.56
37170;BME280;23062;13.952;100.608;2022-12-28T06:56:46;1013.41;;;29.87;36.39
37170;BME280;23062;13.952;100.608;2022-12-28T07:01:14;1013.35;;;29.75;37.54
37170;BME280;23062;13.952;100.608;2022-12-28T07:05:40;1013.31;;;29.79;37.17
37170;BME280;23062;13.952;100.608;2022-12-28T07:10:07;1013.22;;;29.79;37.02
37170;BME280;23062;13.952;100.608;2022-12-28T07:14:33;1013.12;;;29.73;37.24
37170;BME280;23062;13.952;100.608;2022-12-28T07:19:00;1013.10;;;29.72;37.33
37170;BME280;23062;13.952;100.608;2022-12-28T07:23:27;1013.01;;;29.63;36.91
37170;BME280;23062;13.952;100.608;2022-12-28T07:27:58;1012.92;;;29.54;37.32
37170;BME280;23062;13.952;100.608;2022-12-28T07:32:25;1012.81;;;29.45;37.67
37170;BME280;23062;13.952;100.608;2022-12-28T07:36:54;1012.86;;;29.43;38.10
37170;BME280;23062;13.952;100.608;2022-12-28T07:41:25;1012.79;;;29.51;37.41
37170;BME280;23062;13.952;100.608;2022-12-28T07:46:05;1012.72;;;29.51;37.70
37170;BME280;23062;13.952;100.608;2022-12-28T07:50:31;1012.66;;;29.58;36.42
37170;BME280;23062;13.952;100.608;2022-12-28T07:54:58;1012.64;;;29.69;36.50
37170;BME280;23062;13.952;100.608;2022-12-28T07:59:24;1012.66;;;29.58;37.42
37170;BME280;23062;13.952;100.608;2022-12-28T08:03:55;1012.53;;;29.54;37.56
37170;BME280;23062;13.952;100.608;2022-12-28T08:08:21;1012.53;;;29.66;36.69
37170;BME280;23062;13.952;100.608;2022-12-28T08:12:47;1012.47;;;29.65;36.48
37170;BME280;23062;13.952;100.608;2022-12-28T08:17:13;1012.41;;;29.68;37.04
37170;BME280;23062;13.952;100.608;2022-12-28T08:21:41;1012.49;;;29.61;37.19
37170;BME280;23062;13.952;100.608;2022-12-28T08:26:09;1012.40;;;29.69;36.33
37170;BME280;23062;13.952;100.608;2022-12-28T08:30:36;1012.40;;;29.60;37.26
37170;BME280;23062;13.952;100.608;2022-12-28T08:35:02;1012.41;;;29.58;38.06
37170;BME280;23062;13.952;100.608;2022-12-28T08:39:28;1012.37;;;29.50;37.53
37170;BME280;23062;13.952;100.608;2022-12-28T08:43:55;1012.26;;;29.43;37.85
37170;BME280;23062;13.952;100.608;2022-12-28T08:48:21;1012.25;;;29.45;39.01
37170;BME280;23062;13.952;100.608;2022-12-28T08:52:48;1012.21;;;29.49;38.18
37170;BME280;23062;13.952;100.608;2022-12-28T08:57:13;1012.27;;;29.42;38.17
37170;BME280;23062;13.952;100.608;2022-12-28T09:01:43;1012.28;;;29.40;38.68
37170;BME280;23062;13.952;100.608;2022-12-28T09:06:20;1012.25;;;29.41;38.34
37170;BME280;23062;13.952;100.608;2022-12-28T09:10:42;1012.28;;;29.53;38.16
37170;BME280;23062;13.952;100.608;2022-12-28T09:15:12;1012.27;;;29.52;38.09
37170;BME280;23062;13.952;100.608;2022-12-28T09:19:38;1012.23;;;29.43;38.79
37170;BME280;23062;13.952;100.608;2022-12-28T09:24:04;1012.29;;;29.44;38.66
37170;BME280;23062;13.952;100.608;2022-12-28T09:28:31;1012.34;;;29.52;38.37
37170;BME280;23062;13.952;100.608;2022-12-28T09:32:58;1012.36;;;29.58;38.19
37170;BME280;23062;13.952;100.608;2022-12-28T09:37:42;1012.40;;;29.53;38.45
37170;BME280;23062;13.952;100.608;2022-12-28T09:42:16;1012.45;;;29.47;38.75
37170;BME280;23062;13.952;100.608;2022-12-28T09:56:30;1012.59;;;29.40;39.06
37170;BME280;23062;13.952;100.608;2022-12-28T10:00:57;1012.66;;;29.37;39.29
37170;BME280;23062;13.952;100.608;2022-12-28T10:05:24;1012.62;;;29.42;39.25
37170;BME280;23062;13.952;100.608;2022-12-28T10:09:51;1012.71;;;29.45;39.17
37170;BME280;23062;13.952;100.608;2022-12-28T10:14:28;1012.75;;;29.25;40.23
37170;BME280;23062;13.952;100.608;2022-12-28T10:18:55;1012.79;;;29.17;40.67
37170;BME280;23062;13.952;100.608;2022-12-28T10:23:23;1012.84;;;29.20;40.73
37170;BME280;23062;13.952;100.608;2022-12-28T10:27:50;1012.83;;;29.12;41.15
37170;BME280;23062;13.952;100.608;2022-12-28T10:32:19;1012.88;;;29.13;41.11
37170;BME280;23062;13.952;100.608;2022-12-28T10:36:47;1012.98;;;29.13;41.36
37170;BME280;23062;13.952;100.608;2022-12-28T10:41:15;1013.00;;;29.12;41.56
37170;BME280;23062;13.952;100.608;2022-12-28T10:45:47;1013.09;;;29.13;42.04
37170;BME280;23062;13.952;100.608;2022-12-28T10:50:45;1013.11;;;29.13;41.99
37170;BME280;23062;13.952;100.608;2022-12-28T10:55:30;1013.11;;;29.13;42.36
37170;BME280;23062;13.952;100.608;2022-12-28T11:00:17;1013.14;;;29.11;42.76
37170;BME280;23062;13.952;100.608;2022-12-28T11:04:58;1013.23;;;29.02;43.40
37170;BME280;23062;13.952;100.608;2022-12-28T11:09:28;1013.27;;;29.07;43.53
37170;BME280;23062;13.952;100.608;2022-12-28T11:14:13;1013.31;;;29.19;43.88
37170;BME280;23062;13.952;100.608;2022-12-28T11:18:40;1013.31;;;29.31;44.71
37170;BME280;23062;13.952;100.608;2022-12-28T11:23:08;1013.39;;;29.40;44.87
37170;BME280;23062;13.952;100.608;2022-12-28T11:27:34;1013.44;;;29.43;44.83
37170;BME280;23062;13.952;100.608;2022-12-28T11:32:06;1013.49;;;29.43;45.06
37170;BME280;23062;13.952;100.608;2022-12-28T11:36:36;1013.56;;;28.88;47.11
37170;BME280;23062;13.952;100.608;2022-12-28T11:41:00;1013.65;;;28.63;47.76
37170;BME280;23062;13.952;100.608;2022-12-28T11:45:52;1013.68;;;28.61;47.81
37170;BME280;23062;13.952;100.608;2022-12-28T11:55:31;1013.82;;;28.59;47.80
37170;BME280;23062;13.952;100.608;2022-12-28T11:59:34;1013.87;;;28.57;48.10
37170;BME280;23062;13.952;100.608;2022-12-28T12:13:02;1014.04;;;28.74;49.10
37170;BME280;23062;13.952;100.608;2022-12-28T12:26:51;1014.32;;;29.02;48.84
37170;BME280;23062;13.952;100.608;2022-12-28T12:31:45;1014.44;;;29.07;48.66
37170;BME280;23062;13.952;100.608;2022-12-28T12:36:31;1014.47;;;29.09;48.49
37170;BME280;23062;13.952;100.608;2022-12-28T12:46:06;1014.62;;;29.17;48.19
37170;BME280;23062;13.952;100.608;2022-12-28T12:55:31;1014.71;;;29.16;48.15
37170;BME280;23062;13.952;100.608;2022-12-28T13:04:30;1014.92;;;29.17;48.12
37170;BME280;23062;13.952;100.608;2022-12-28T13:09:02;1015.01;;;29.17;48.18
37170;BME280;23062;13.952;100.608;2022-12-28T13:13:35;1015.13;;;29.16;48.25
37170;BME280;23062;13.952;100.608;2022-12-28T13:18:15;1015.16;;;29.14;48.35
37170;BME280;23062;13.952;100.608;2022-12-28T13:22:43;1015.24;;;29.15;48.30
37170;BME280;23062;13.952;100.608;2022-12-28T13:27:19;1015.29;;;29.15;48.34
37170;BME280;23062;13.952;100.608;2022-12-28T13:31:46;1015.34;;;29.14;48.38
37170;BME280;23062;13.952;100.608;2022-12-28T13:36:16;1015.42;;;29.16;48.29
37170;BME280;23062;13.952;100.608;2022-12-28T13:40:52;1015.42;;;29.22;48.06
37170;BME280;23062;13.952;100.608;2022-12-28T13:45:20;1015.44;;;29.17;47.87
37170;BME280;23062;13.952;100.608;2022-12-28T13:50:05;1015.54;;;29.03;47.97
37170;BME280;23062;13.952;100.608;2022-12-28T13:54:37;1015.62;;;29.02;48.38
37170;BME280;23062;13.952;100.608;2022-12-28T13:59:16;1015.64;;;29.01;48.38
37170;BME280;23062;13.952;100.608;2022-12-28T14:03:40;1015.64;;;28.98;48.36
37170;BME280;23062;13.952;100.608;2022-12-28T14:08:07;1015.69;;;28.98;48.30
37170;BME280;23062;13.952;100.608;2022-12-28T14:12:33;1015.75;;;28.98;48.22
37170;BME280;23062;13.952;100.608;2022-12-28T14:17:01;1015.76;;;28.98;48.20
37170;BME280;23062;13.952;100.608;2022-12-28T14:21:33;1015.81;;;28.96;48.17
37170;BME280;23062;13.952;100.608;2022-12-28T14:26:09;1015.86;;;28.95;48.24
37170;BME280;23062;13.952;100.608;2022-12-28T14:30:41;1015.97;;;28.96;48.23
37170;BME280;23062;13.952;100.608;2022-12-28T14:35:18;1015.95;;;28.94;48.31
37170;BME280;23062;13.952;100.608;2022-12-28T14:39:42;1015.95;;;28.94;48.29
37170;BME280;23062;13.952;100.608;2022-12-28T14:44:16;1015.99;;;28.93;48.33
37170;BME280;23062;13.952;100.608;2022-12-28T14:48:42;1016.02;;;28.93;48.37
37170;BME280;23062;13.952;100.608;2022-12-28T14:53:12;1015.97;;;28.91;48.42
37170;BME280;23062;13.952;100.608;2022-12-28T14:57:41;1016.00;;;28.89;48.52
37170;BME280;23062;13.952;100.608;2022-12-28T15:06:49;1016.01;;;28.90;48.50
37170;BME280;23062;13.952;100.608;2022-12-28T15:11:16;1016.05;;;28.90;48.52
37170;BME280;23062;13.952;100.608;2022-12-28T15:15:42;1016.05;;;28.87;48.59
37170;BME280;23062;13.952;100.608;2022-12-28T15:20:09;1016.02;;;28.86;48.73
37170;BME280;23062;13.952;100.608;2022-12-28T15:24:35;1016.03;;;28.86;48.83
37170;BME280;23062;13.952;100.608;2022-12-28T15:29:05;1016.01;;;28.85;48.98
37170;BME280;23062;13.952;100.608;2022-12-28T15:33:32;1016.02;;;28.83;49.08
37170;BME280;23062;13.952;100.608;2022-12-28T15:37:58;1016.03;;;28.85;49.05
37170;BME280;23062;13.952;100.608;2022-12-28T15:42:24;1015.97;;;28.85;49.12
37170;BME280;23062;13.952;100.608;2022-12-28T15:46:51;1015.96;;;28.82;49.20
37170;BME280;23062;13.952;100.608;2022-12-28T15:51:17;1015.91;;;28.82;49.31
37170;BME280;23062;13.952;100.608;2022-12-28T15:55:43;1015.85;;;28.81;49.29
37170;BME280;23062;13.952;100.608;2022-12-28T16:00:11;1015.81;;;28.81;49.30
37170;BME280;23062;13.952;100.608;2022-12-28T16:04:39;1015.81;;;28.80;49.37
37170;BME280;23062;13.952;100.608;2022-12-28T16:09:06;1015.84;;;28.80;49.41
37170;BME280;23062;13.952;100.608;2022-12-28T16:13:32;1015.89;;;28.80;49.45
37170;BME280;23062;13.952;100.608;2022-12-28T16:18:00;1015.81;;;28.78;49.46
37170;BME280;23062;13.952;100.608;2022-12-28T16:22:29;1015.82;;;28.78;49.48
37170;BME280;23062;13.952;100.608;2022-12-28T16:26:55;1015.78;;;28.77;49.60
37170;BME280;23062;13.952;100.608;2022-12-28T16:31:28;1015.83;;;28.78;49.67
37170;BME280;23062;13.952;100.608;2022-12-28T16:35:56;1015.81;;;28.80;49.68
37170;BME280;23062;13.952;100.608;2022-12-28T16:40:22;1015.81;;;28.77;49.77
37170;BME280;23062;13.952;100.608;2022-12-28T16:44:47;1015.78;;;28.78;49.76
37170;BME280;23062;13.952;100.608;2022-12-28T16:49:14;1015.79;;;28.78;49.80
37170;BME280;23062;13.952;100.608;2022-12-28T16:53:44;1015.74;;;28.76;49.92
37170;BME280;23062;13.952;100.608;2022-12-28T16:58:12;1015.81;;;28.76;49.95
37170;BME280;23062;13.952;100.608;2022-12-28T17:02:41;1015.78;;;28.76;49.96
37170;BME280;23062;13.952;100.608;2022-12-28T17:07:07;1015.78;;;28.74;50.02
37170;BME280;23062;13.952;100.608;2022-12-28T17:11:34;1015.70;;;28.73;50.11
37170;BME280;23062;13.952;100.608;2022-12-28T17:16:00;1015.65;;;28.71;50.19
37170;BME280;23062;13.952;100.608;2022-12-28T17:20:26;1015.60;;;28.70;50.24
37170;BME280;23062;13.952;100.608;2022-12-28T17:24:53;1015.65;;;28.72;50.15
37170;BME280;23062;13.952;100.608;2022-12-28T17:29:19;1015.68;;;28.70;50.22
37170;BME280;23062;13.952;100.608;2022-12-28T17:33:47;1015.62;;;28.69;50.23
37170;BME280;23062;13.952;100.608;2022-12-28T17:38:13;1015.59;;;28.69;50.27
37170;BME280;23062;13.952;100.608;2022-12-28T17:42:39;1015.59;;;28.68;50.33
37170;BME280;23062;13.952;100.608;2022-12-28T17:47:06;1015.53;;;28.67;50.40
37170;BME280;23062;13.952;100.608;2022-12-28T17:51:33;1015.53;;;28.67;50.39
37170;BME280;23062;13.952;100.608;2022-12-28T17:56:03;1015.49;;;28.67;50.45
37170;BME280;23062;13.952;100.608;2022-12-28T18:00:29;1015.52;;;28.68;50.36
37170;BME280;23062;13.952;100.608;2022-12-28T18:04:56;1015.50;;;28.67;50.51
37170;BME280;23062;13.952;100.608;2022-12-28T18:09:25;1015.44;;;28.67;50.55
37170;BME280;23062;13.952;100.608;2022-12-28T18:13:51;1015.40;;;28.65;50.62
37170;BME280;23062;13.952;100.608;2022-12-28T18:18:18;1015.37;;;28.64;50.70
37170;BME280;23062;13.952;100.608;2022-12-28T18:22:45;1015.34;;;28.64;50.71
37170;BME280;23062;13.952;100.608;2022-12-28T18:27:11;1015.32;;;28.67;50.67
37170;BME280;23062;13.952;100.608;2022-12-28T18:31:37;1015.25;;;28.66;50.77
37170;BME280;23062;13.952;100.608;2022-12-28T18:36:05;1015.26;;;28.68;50.63
37170;BME280;23062;13.952;100.608;2022-12-28T18:40:33;1015.27;;;28.70;50.65
37170;BME280;23062;13.952;100.608;2022-12-28T18:44:58;1015.22;;;28.70;50.64
37170;BME280;23062;13.952;100.608;2022-12-28T18:49:24;1015.17;;;28.69;50.68
37170;BME280;23062;13.952;100.608;2022-12-28T18:53:52;1015.11;;;28.67;50.69
37170;BME280;23062;13.952;100.608;2022-12-28T18:58:18;1015.11;;;28.70;50.71
37170;BME280;23062;13.952;100.608;2022-12-28T19:02:44;1015.02;;;28.74;50.62
37170;BME280;23062;13.952;100.608;2022-12-28T19:07:11;1015.05;;;28.71;50.70
37170;BME280;23062;13.952;100.608;2022-12-28T19:11:38;1014.92;;;28.73;50.66
37170;BME280;23062;13.952;100.608;2022-12-28T19:16:11;1014.92;;;28.74;50.69
37170;BME280;23062;13.952;100.608;2022-12-28T19:20:38;1014.92;;;28.72;50.73
37170;BME280;23062;13.952;100.608;2022-12-28T19:25:05;1014.90;;;28.69;50.83
37170;BME280;23062;13.952;100.608;2022-12-28T19:29:32;1014.89;;;28.68;50.84
37170;BME280;23062;13.952;100.608;2022-12-28T19:33:59;1014.88;;;28.66;50.89
37170;BME280;23062;13.952;100.608;2022-12-28T19:38:25;1014.80;;;28.69;50.76
37170;BME280;23062;13.952;100.608;2022-12-28T19:42:51;1014.77;;;28.66;50.84
37170;BME280;23062;13.952;100.608;2022-12-28T19:47:17;1014.73;;;28.64;50.80
37170;BME280;23062;13.952;100.608;2022-12-28T19:51:43;1014.69;;;28.70;50.59
37170;BME280;23062;13.952;100.608;2022-12-28T19:56:12;1014.66;;;28.66;50.63
37170;BME280;23062;13.952;100.608;2022-12-28T20:00:39;1014.64;;;28.65;50.64
37170;BME280;23062;13.952;100.608;2022-12-28T20:05:06;1014.57;;;28.60;50.74
37170;BME280;23062;13.952;100.608;2022-12-28T20:09:32;1014.60;;;28.62;50.71
37170;BME280;23062;13.952;100.608;2022-12-28T20:14:02;1014.58;;;28.63;50.61
37170;BME280;23062;13.952;100.608;2022-12-28T20:18:29;1014.58;;;28.62;50.62
37170;BME280;23062;13.952;100.608;2022-12-28T20:22:55;1014.53;;;28.60;50.63
37170;BME280;23062;13.952;100.608;2022-12-28T20:27:21;1014.52;;;28.57;50.66
37170;BME280;23062;13.952;100.608;2022-12-28T20:31:49;1014.54;;;28.55;50.79
37170;BME280;23062;13.952;100.608;2022-12-28T20:36:22;1014.48;;;28.51;50.83
37170;BME280;23062;13.952;100.608;2022-12-28T20:40:48;1014.51;;;28.55;50.70
37170;BME280;23062;13.952;100.608;2022-12-28T20:45:14;1014.57;;;28.27;50.70
37170;BME280;23062;13.952;100.608;2022-12-28T20:49:40;1014.46;;;28.12;51.28
37170;BME280;23062;13.952;100.608;2022-12-28T20:54:10;1014.46;;;28.04;51.36
37170;BME280;23062;13.952;100.608;2022-12-28T20:58:36;1014.49;;;27.97;51.96
37170;BME280;23062;13.952;100.608;2022-12-28T21:03:03;1014.49;;;27.85;52.35
37170;BME280;23062;13.952;100.608;2022-12-28T21:07:29;1014.53;;;27.54;53.07
37170;BME280;23062;13.952;100.608;2022-12-28T21:11:55;1014.60;;;27.25;53.96
37170;BME280;23062;13.952;100.608;2022-12-28T21:16:21;1014.59;;;27.13;54.33
37170;BME280;23062;13.952;100.608;2022-12-28T21:20:48;1014.64;;;27.02;54.70
37170;BME280;23062;13.952;100.608;2022-12-28T21:25:15;1014.70;;;26.95;55.19
37170;BME280;23062;13.952;100.608;2022-12-28T21:29:41;1014.74;;;26.91;55.41
37170;BME280;23062;13.952;100.608;2022-12-28T21:34:07;1014.83;;;26.90;55.71
37170;BME280;23062;13.952;100.608;2022-12-28T21:38:39;1014.81;;;26.79;56.05
37170;BME280;23062;13.952;100.608;2022-12-28T21:43:05;1014.83;;;26.77;56.20
37170;BME280;23062;13.952;100.608;2022-12-28T21:47:38;1014.92;;;26.82;56.48
37170;BME280;23062;13.952;100.608;2022-12-28T21:52:04;1014.92;;;26.75;57.16
37170;BME280;23062;13.952;100.608;2022-12-28T21:56:33;1014.96;;;26.63;59.05
37170;BME280;23062;13.952;100.608;2022-12-28T22:00:59;1015.01;;;26.60;60.47
37170;BME280;23062;13.952;100.608;2022-12-28T22:05:33;1015.00;;;26.52;60.91
37170;BME280;23062;13.952;100.608;2022-12-28T22:10:15;1014.98;;;26.22;61.55
37170;BME280;23062;13.952;100.608;2022-12-28T22:15:21;1015.07;;;25.73;63.04
37170;BME280;23062;13.952;100.608;2022-12-28T22:19:47;1015.08;;;25.60;62.93
37170;BME280;23062;13.952;100.608;2022-12-28T22:24:13;1015.12;;;25.49;63.23
37170;BME280;23062;13.952;100.608;2022-12-28T22:28:39;1015.09;;;25.47;62.73
37170;BME280;23062;13.952;100.608;2022-12-28T22:33:09;1015.15;;;25.46;62.37
37170;BME280;23062;13.952;100.608;2022-12-28T22:37:36;1015.19;;;25.55;62.18
37170;BME280;23062;13.952;100.608;2022-12-28T22:42:02;1015.21;;;25.51;62.87
37170;BME280;23062;13.952;100.608;2022-12-28T22:46:31;1015.22;;;25.51;63.17
37170;BME280;23062;13.952;100.608;2022-12-28T22:51:10;1015.24;;;26.28;60.67
37170;BME280;23062;13.952;100.608;2022-12-28T22:55:36;1015.40;;;26.66;59.42
37170;BME280;23062;13.952;100.608;2022-12-28T23:00:05;1015.47;;;26.70;58.99
37170;BME280;23062;13.952;100.608;2022-12-28T23:04:31;1015.44;;;26.74;58.77
37170;BME280;23062;13.952;100.608;2022-12-28T23:08:57;1015.56;;;26.71;58.94
37170;BME280;23062;13.952;100.608;2022-12-28T23:13:24;1015.62;;;26.71;58.89
37170;BME280;23062;13.952;100.608;2022-12-28T23:17:52;1015.68;;;26.69;59.12
37170;BME280;23062;13.952;100.608;2022-12-28T23:22:22;1015.78;;;26.69;58.95
37170;BME280;23062;13.952;100.608;2022-12-28T23:27:09;1016.00;;;26.70;59.04
37170;BME280;23062;13.952;100.608;2022-12-28T23:31:44;1016.22;;;26.69;59.14
37170;BME280;23062;13.952;100.608;2022-12-28T23:36:17;1016.31;;;26.76;58.89
37170;BME280;23062;13.952;100.608;2022-12-28T23:40:45;1016.33;;;26.79;58.88
37170;BME280;23062;13.952;100.608;2022-12-28T23:45:16;1016.38;;;26.81;58.94
37170;BME280;23062;13.952;100.608;2022-12-28T23:49:45;1016.44;;;26.78;59.23
37170;BME280;23062;13.952;100.608;2022-12-28T23:54:13;1016.44;;;26.75;59.10
37170;BME280;23062;13.952;100.608;2022-12-28T23:58:44;1016.41;;;26.77;59.30
